Time;durP1;ratioP1;P1;durP2;ratioP2;P2;SDS_P1;SDS_P2;PMS_P1;PMS_P2;Temp;Humidity;BMP_temperature;BMP_pressure;BME280_temperature;BME280_humidity;BME280_pressure;Samples;Min_cycle;Max_cycle;Signal;HPM_P1;HPM_P2
2021/12/18 00:02:36;;;;;;;23.67;10.52;;;;;;;2.52;82.28;101538.56;5051879;28;20530;-72
2021/12/18 00:05:21;;;;;;;21.90;10.50;;;;;;;2.55;81.95;101535.66;5037844;28;20124;-72
2021/12/18 00:08:07;;;;;;;23.60;10.75;;;;;;;2.44;82.04;101522.84;5048010;28;20107;-73
2021/12/18 00:10:55;;;;;;;23.65;10.52;;;;;;;2.49;82.08;101534.47;5051646;28;20024;-72
2021/12/18 00:13:41;;;;;;;18.58;10.18;;;;;;;2.50;81.59;101537.88;5044088;28;20617;-73
2021/12/18 00:16:27;;;;;;;24.35;10.27;;;;;;;2.44;81.74;101535.84;5034047;28;20407;-72
2021/12/18 00:19:13;;;;;;;23.65;10.88;;;;;;;2.42;81.97;101532.56;5052943;28;20397;-73
2021/12/18 00:22:00;;;;;;;21.95;10.35;;;;;;;2.41;81.43;101529.16;5050387;28;20025;-73
2021/12/18 00:24:45;;;;;;;22.15;9.75;;;;;;;2.43;82.00;101537.63;5050656;28;20035;-73
2021/12/18 00:27:31;;;;;;;21.02;9.63;;;;;;;2.34;81.85;101533.28;5051276;28;20082;-73
2021/12/18 00:30:17;;;;;;;19.60;9.32;;;;;;;2.36;81.18;101533.16;5043622;28;20729;-73
2021/12/18 00:33:04;;;;;;;20.92;9.80;;;;;;;2.43;81.54;101549.81;5051772;28;20044;-73
2021/12/18 00:35:50;;;;;;;23.05;10.07;;;;;;;2.43;81.24;101548.03;5044650;28;20411;-73
2021/12/18 00:38:38;;;;;;;18.88;9.75;;;;;;;2.42;80.95;101555.97;5051889;28;20958;-73
2021/12/18 00:44:18;;;;;;;21.92;9.73;;;;;;;2.43;81.02;101568.03;5035423;28;20385;-73
2021/12/18 00:47:04;;;;;;;27.08;10.20;;;;;;;2.38;80.19;101558.03;5049011;28;20064;-73
2021/12/18 00:49:50;;;;;;;23.02;9.93;;;;;;;2.45;79.70;101574.72;5052218;28;20087;-73
2021/12/18 00:52:36;;;;;;;25.20;10.98;;;;;;;2.46;80.11;101576.34;5050777;28;20062;-71
2021/12/18 00:55:23;;;;;;;23.52;10.73;;;;;;;2.37;79.40;101555.59;5051898;28;20170;-73
2021/12/18 00:58:09;;;;;;;23.77;10.57;;;;;;;2.45;79.76;101573.91;5038038;28;20028;-72
2021/12/18 01:00:54;;;;;;;24.55;10.18;;;;;;;2.23;79.43;101541.28;5041443;28;20041;-73
2021/12/18 01:03:42;;;;;;;21.35;10.02;;;;;;;2.45;79.59;101574.72;5050217;28;20072;-71
2021/12/18 01:06:28;;;;;;;23.30;10.23;;;;;;;2.37;78.91;101558.19;5050216;28;20029;-73
2021/12/18 01:09:15;;;;;;;20.63;9.23;;;;;;;2.40;78.70;101556.13;5049976;28;20091;-73
2021/12/18 01:12:04;;;;;;;20.17;10.27;;;;;;;2.41;78.56;101562.13;5051107;28;20094;-72
2021/12/18 01:23:57;;;;;;;18.25;8.90;;;;;;;2.31;77.12;101555.19;5048582;28;20025;-73
2021/12/18 01:26:43;;;;;;;19.55;8.57;;;;;;;2.30;77.36;101550.16;5051873;28;20045;-73
2021/12/18 01:29:29;;;;;;;21.73;9.15;;;;;;;2.28;77.09;101555.47;5036550;28;20067;-72
2021/12/18 01:32:15;;;;;;;23.05;9.77;;;;;;;2.27;77.19;101564.22;5052385;28;20032;-72
2021/12/18 01:35:01;;;;;;;21.92;9.85;;;;;;;2.23;77.79;101554.28;5048076;28;20451;-73
2021/12/18 01:37:49;;;;;;;19.25;9.48;;;;;;;2.12;77.24;101548.28;5045156;28;20048;-73
2021/12/18 01:40:35;;;;;;;25.25;9.48;;;;;;;2.13;77.34;101565.50;5053943;28;20491;-73
2021/12/18 01:52:32;;;;;;;22.65;8.85;;;;;;;2.02;76.35;101573.47;5052498;28;20035;-72
2021/12/18 01:55:18;;;;;;;17.73;8.57;;;;;;;1.97;77.20;101574.84;5049219;28;20029;-73
2021/12/18 01:58:05;;;;;;;18.90;8.75;;;;;;;1.96;76.99;101594.78;5035778;28;20087;-73
2021/12/18 02:00:55;;;;;;;18.75;9.10;;;;;;;1.89;76.78;101591.09;5052088;28;20560;-72
2021/12/18 02:03:42;;;;;;;19.98;8.45;;;;;;;1.85;77.35;101595.78;5054155;28;20585;-73
2021/12/18 02:06:28;;;;;;;17.35;8.60;;;;;;;1.72;77.35;101590.03;5041007;28;20042;-72
2021/12/18 02:09:13;;;;;;;18.05;9.02;;;;;;;1.69;77.30;101585.13;5039597;28;20044;-72
2021/12/18 02:12:00;;;;;;;19.67;8.48;;;;;;;1.64;78.00;101593.31;5048618;28;20424;-73
2021/12/18 02:20:55;;;;;;;18.17;8.82;;;;;;;1.54;77.84;101596.88;5047596;28;20041;-73
2021/12/18 02:23:41;;;;;;;18.58;8.45;;;;;;;1.52;78.10;101589.22;5054747;28;20029;-72
2021/12/18 02:26:27;;;;;;;18.67;8.32;;;;;;;1.41;78.34;101586.75;5053500;28;20044;-71
2021/12/18 02:29:15;;;;;;;19.02;8.88;;;;;;;1.34;78.61;101586.47;5040310;28;20040;-72
2021/12/18 02:32:02;;;;;;;16.90;7.72;;;;;;;1.24;78.75;101570.88;5050220;28;20021;-72
2021/12/18 02:34:53;;;;;;;18.35;8.82;;;;;;;1.67;78.94;101649.34;5049274;28;20056;-72
2021/12/18 02:37:42;;;;;;;20.92;9.15;;;;;;;1.10;79.04;101560.88;5052965;28;20455;-73
2021/12/18 02:43:39;;;;;;;17.42;8.00;;;;;;;1.08;79.03;101573.19;5052247;28;19913;-73
2021/12/18 02:46:25;;;;;;;13.73;7.45;;;;;;;1.05;78.79;101574.28;5040856;28;20045;-72
2021/12/18 02:49:15;;;;;;;15.90;8.30;;;;;;;0.72;79.34;101525.31;5042796;28;20025;-73
2021/12/18 02:52:01;;;;;;;16.63;8.20;;;;;;;0.99;79.01;101569.63;5043614;28;20128;-73
2021/12/18 02:54:47;;;;;;;17.08;7.63;;;;;;;0.90;79.58;101567.81;5051347;28;20139;-73
2021/12/18 02:57:33;;;;;;;16.17;8.10;;;;;;;0.88;78.97;101556.75;5053234;28;20025;-71
2021/12/18 03:00:20;;;;;;;15.75;7.50;;;;;;;0.85;79.14;101562.22;5055844;28;20046;-73
2021/12/18 03:03:09;;;;;;;17.15;7.47;;;;;;;0.90;79.76;101564.41;5050734;28;20407;-73
2021/12/18 03:06:09;;;;;;;14.20;6.93;;;;;;;0.88;79.53;101566.31;5051030;28;20037;-73
2021/12/18 03:24:10;;;;;;;13.15;6.47;;;;;;;1.11;77.15;101572.09;5033642;28;20033;-73
2021/12/18 03:26:55;;;;;;;17.83;7.25;;;;;;;1.17;77.31;101572.38;5048513;28;20086;-73
2021/12/18 03:29:41;;;;;;;14.05;7.43;;;;;;;1.18;77.61;101573.22;5053453;28;20033;-73
2021/12/18 03:32:27;;;;;;;17.02;7.30;;;;;;;1.14;77.23;101580.44;5053817;28;20033;-73
2021/12/18 03:35:14;;;;;;;15.05;6.60;;;;;;;1.10;77.59;101576.44;5040740;28;20036;-72
2021/12/18 03:38:00;;;;;;;15.50;6.80;;;;;;;0.70;77.84;101515.09;5034519;28;20080;-73
2021/12/18 03:40:46;;;;;;;17.92;7.38;;;;;;;1.08;78.06;101586.16;5046183;28;20410;-73
2021/12/18 03:43:32;;;;;;;17.60;7.28;;;;;;;1.11;78.50;101588.47;5032414;28;20487;-72
2021/12/18 03:46:17;;;;;;;16.23;6.70;;;;;;;1.05;78.07;101586.41;5051712;28;20033;-73
2021/12/18 03:49:03;;;;;;;12.70;6.13;;;;;;;1.08;78.16;101603.47;5050705;28;20110;-72
2021/12/18 03:51:49;;;;;;;14.10;6.25;;;;;;;1.02;78.37;101586.69;5032946;28;20037;-73
2021/12/18 03:54:35;;;;;;;15.93;6.97;;;;;;;1.11;78.43;101603.25;5049962;28;20033;-73
2021/12/18 03:57:21;;;;;;;11.70;6.68;;;;;;;1.05;79.01;101607.16;5052031;28;20029;-73
2021/12/18 04:00:10;;;;;;;16.48;6.70;;;;;;;1.08;78.75;101611.25;5052841;28;20048;-73
2021/12/18 04:02:56;;;;;;;13.85;6.90;;;;;;;1.05;78.83;101612.34;5049104;28;20549;-72
2021/12/18 04:05:41;;;;;;;15.57;6.78;;;;;;;0.93;78.87;101595.25;5037172;28;20052;-73
2021/12/18 04:08:27;;;;;;;18.10;7.18;;;;;;;1.05;79.16;101617.53;5037851;28;20040;-72
2021/12/18 04:11:13;;;;;;;13.35;6.00;;;;;;;1.02;79.03;101623.00;5049917;28;20036;-73
2021/12/18 04:14:01;;;;;;;16.23;6.45;;;;;;;0.89;79.07;101606.84;5047823;28;20072;-73
2021/12/18 04:16:47;;;;;;;18.65;6.97;;;;;;;0.92;79.14;101612.59;5040871;28;20033;-73
2021/12/18 04:19:34;;;;;;;15.25;6.30;;;;;;;0.97;79.52;101631.16;5042445;28;20414;-73
2021/12/18 04:22:19;;;;;;;15.20;6.05;;;;;;;0.97;79.32;101628.56;5052114;28;20124;-73
2021/12/18 04:25:06;;;;;;;16.80;7.47;;;;;;;0.98;79.19;101638.00;5037973;28;20037;-72
2021/12/18 04:27:52;;;;;;;13.80;6.55;;;;;;;0.88;79.40;101631.13;5047772;28;20040;-73
2021/12/18 04:30:37;;;;;;;13.55;6.38;;;;;;;0.95;79.36;101638.25;5057181;28;20036;-73
2021/12/18 04:33:23;;;;;;;13.60;6.45;;;;;;;0.96;79.02;101650.28;5052665;28;20040;-73
2021/12/18 04:36:09;;;;;;;14.90;6.63;;;;;;;0.92;79.15;101641.13;5039850;28;20059;-73
2021/12/18 04:38:55;;;;;;;12.95;6.57;;;;;;;0.92;78.77;101641.13;5036847;28;20552;-73
2021/12/18 04:41:50;;;;;;;15.45;6.53;;;;;;;0.80;79.03;101624.03;5048390;28;20112;-73
2021/12/18 04:44:35;;;;;;;13.27;6.85;;;;;;;0.62;79.06;101609.09;5051229;28;20479;-73
2021/12/18 04:47:21;;;;;;;14.70;6.80;;;;;;;0.93;79.35;101662.69;5051546;28;20041;-73
2021/12/18 04:50:07;;;;;;;15.15;6.50;;;;;;;0.82;79.21;101650.66;5051344;28;20032;-73
2021/12/18 04:52:53;;;;;;;14.85;6.80;;;;;;;0.81;78.90;101657.59;5041589;28;20380;-73
2021/12/18 04:55:39;;;;;;;16.67;7.45;;;;;;;0.85;79.41;101668.53;5051424;28;20033;-73
2021/12/18 04:58:25;;;;;;;14.20;7.03;;;;;;;0.80;79.64;101671.50;5046128;28;20546;-73
2021/12/18 05:01:11;;;;;;;15.60;6.72;;;;;;;0.70;79.57;101656.88;5032343;28;20041;-73
2021/12/18 05:03:56;;;;;;;16.42;7.07;;;;;;;0.77;79.93;101678.72;5049731;28;20055;-73
2021/12/18 05:06:45;;;;;;;13.30;7.05;;;;;;;0.77;80.03;101678.72;5049781;28;20037;-73
2021/12/18 05:09:31;;;;;;;14.87;7.27;;;;;;;0.71;80.32;101671.47;5051234;28;20118;-72
2021/12/18 05:12:16;;;;;;;13.63;6.80;;;;;;;0.67;79.82;101680.44;5051277;28;20062;-72
2021/12/18 05:15:03;;;;;;;18.00;7.47;;;;;;;0.73;80.16;101690.31;5050794;28;20029;-73
2021/12/18 05:17:49;;;;;;;16.63;7.93;;;;;;;0.76;80.01;101700.41;5034725;28;20044;-72
2021/12/18 05:20:35;;;;;;;17.05;8.13;;;;;;;0.68;79.77;101697.66;5050377;28;20119;-71
2021/12/18 05:23:21;;;;;;;18.98;9.43;;;;;;;0.65;79.94;101698.72;5040038;28;20025;-73
2021/12/18 05:26:06;;;;;;;22.75;9.30;;;;;;;0.68;80.20;101708.03;5038995;28;20479;-73
2021/12/18 05:28:52;;;;;;;21.88;9.05;;;;;;;0.70;79.86;101722.50;5034912;28;20056;-73
2021/12/18 05:31:38;;;;;;;21.88;8.57;;;;;;;0.64;80.22;101721.22;5040985;28;20037;-73
2021/12/18 05:34:26;;;;;;;16.05;8.25;;;;;;;0.71;80.17;101733.69;5024910;28;20044;-73
2021/12/18 05:37:32;;;;;;;15.88;7.93;;;;;;;0.70;80.08;101737.22;5041426;28;20032;-73
2021/12/18 05:40:20;;;;;;;17.05;7.78;;;;;;;0.70;80.18;101742.41;5032223;28;20129;-73
2021/12/18 05:43:07;;;;;;;14.07;7.43;;;;;;;0.70;80.28;101752.78;5036516;28;20045;-73
2021/12/18 05:45:53;;;;;;;18.50;8.48;;;;;;;0.62;80.13;101743.88;5048140;28;20266;-73
2021/12/18 05:48:39;;;;;;;17.25;8.13;;;;;;;0.62;80.35;101756.84;5041661;28;20053;-72
2021/12/18 05:51:25;;;;;;;18.92;7.78;;;;;;;0.61;80.44;101754.34;5051786;28;20029;-73
2021/12/18 05:54:12;;;;;;;15.13;7.53;;;;;;;0.63;80.72;101758.47;5050796;28;20029;-73
2021/12/18 05:56:58;;;;;;;21.60;8.90;;;;;;;0.62;81.07;101764.59;5052031;28;20037;-73
2021/12/18 05:59:44;;;;;;;16.80;7.65;;;;;;;0.59;80.35;101767.44;5033238;28;20044;-73
2021/12/18 06:02:29;;;;;;;15.00;7.32;;;;;;;0.62;81.02;101777.56;5038821;28;20582;-72
2021/12/18 06:05:15;;;;;;;17.05;7.75;;;;;;;0.53;81.29;101775.72;5044950;28;20063;-72
2021/12/18 06:08:03;;;;;;;18.05;8.88;;;;;;;0.51;80.98;101771.63;5032403;28;20060;-73
2021/12/18 06:10:51;;;;;;;19.83;9.57;;;;;;;0.59;80.84;101792.53;5043843;28;20040;-72
2021/12/18 06:13:36;;;;;;;18.77;7.88;;;;;;;0.54;81.20;101787.72;5049899;28;20033;-73
2021/12/18 06:16:22;;;;;;;21.67;8.15;;;;;;;0.56;81.49;101790.19;5050239;28;20029;-72
2021/12/18 06:19:08;;;;;;;22.67;11.57;;;;;;;0.46;81.39;101782.34;5032755;28;20034;-72
2021/12/18 06:21:54;;;;;;;24.45;11.93;;;;;;;0.48;81.61;101785.66;5043597;28;20110;-72
2021/12/18 06:24:40;;;;;;;20.83;9.32;;;;;;;0.49;81.61;101792.47;5047820;28;20053;-72
2021/12/18 06:27:25;;;;;;;28.30;10.77;;;;;;;0.42;81.72;101780.94;5041830;28;20041;-72
2021/12/18 06:30:12;;;;;;;24.55;9.95;;;;;;;0.38;81.78;101774.38;5034484;28;20187;-72
2021/12/18 06:32:58;;;;;;;20.25;9.30;;;;;;;0.44;81.71;101791.19;5036550;28;20045;-71
2021/12/18 06:35:44;;;;;;;31.13;12.35;;;;;;;0.45;81.94;101800.59;5037525;28;20057;-70
2021/12/18 06:38:30;;;;;;;21.17;9.65;;;;;;;0.50;83.74;101801.88;5037634;28;20037;-73
2021/12/18 06:41:15;;;;;;;28.33;11.02;;;;;;;0.52;83.24;101805.16;5045889;28;20059;-72
2021/12/18 06:44:02;;;;;;;25.80;12.00;;;;;;;0.50;82.47;101824.38;5036067;28;20446;-72
2021/12/18 06:46:47;;;;;;;27.73;13.00;;;;;;;0.45;82.57;101823.94;5053758;28;20032;-72
2021/12/18 06:49:33;;;;;;;29.10;12.07;;;;;;;0.39;82.20;101822.66;5050842;28;20068;-73
2021/12/18 06:52:19;;;;;;;28.23;11.57;;;;;;;0.38;82.22;101819.25;5034797;28;20049;-73
2021/12/18 06:55:05;;;;;;;24.38;10.63;;;;;;;0.36;82.31;101817.72;5052713;28;20036;-72
2021/12/18 06:57:51;;;;;;;24.95;10.95;;;;;;;0.40;82.44;101826.88;5054279;28;20075;-71
2021/12/18 07:00:37;;;;;;;27.58;10.00;;;;;;;0.37;82.51;101816.78;5050860;28;20033;-72
2021/12/18 07:03:24;;;;;;;27.80;9.25;;;;;;;0.39;82.40;101822.66;5039584;28;20102;-72
2021/12/18 07:06:09;;;;;;;23.70;9.30;;;;;;;0.41;82.67;101836.31;5039609;28;20052;-73
2021/12/18 07:08:55;;;;;;;16.40;7.80;;;;;;;0.45;82.76;101848.06;5040691;28;20037;-72
2021/12/18 07:11:41;;;;;;;24.17;9.70;;;;;;;0.47;82.68;101848.78;5037466;28;20033;-72
2021/12/18 07:14:27;;;;;;;15.93;6.63;;;;;;;0.47;82.71;101846.19;5038641;28;20068;-71
2021/12/18 07:17:13;;;;;;;24.38;8.10;;;;;;;0.53;82.23;101855.25;5046017;28;20499;-71
2021/12/18 07:19:59;;;;;;;28.10;9.05;;;;;;;0.52;82.38;101851.81;5045846;28;20044;-72
2021/12/18 07:22:45;;;;;;;18.55;7.38;;;;;;;0.68;82.21;101868.75;5050900;28;20398;-72
2021/12/18 07:25:31;;;;;;;21.13;8.60;;;;;;;0.68;81.81;101855.78;5040093;28;20140;-73
2021/12/18 07:28:17;;;;;;;19.85;7.57;;;;;;;0.66;81.95;101849.91;5052233;28;20033;-72
2021/12/18 07:31:03;;;;;;;18.90;7.38;;;;;;;0.74;81.70;101861.31;5043770;28;20542;-72
2021/12/18 07:33:48;;;;;;;14.73;7.03;;;;;;;0.82;81.38;101873.63;5052401;28;20092;-72
2021/12/18 07:36:34;;;;;;;16.92;7.03;;;;;;;0.80;81.11;101854.78;5039361;28;20037;-72
2021/12/18 07:39:20;;;;;;;26.75;7.68;;;;;;;0.89;81.33;101861.81;5037837;28;20072;-72
2021/12/18 07:42:06;;;;;;;15.57;6.78;;;;;;;0.88;81.22;101854.16;5041462;28;20517;-73
2021/12/18 07:44:52;;;;;;;16.35;6.53;;;;;;;0.97;80.70;101856.00;5046410;28;20103;-73
2021/12/18 07:47:39;;;;;;;12.88;6.00;;;;;;;0.94;80.08;101854.47;5051445;28;20502;-72
2021/12/18 07:50:24;;;;;;;14.43;6.57;;;;;;;0.98;80.36;101855.03;5044501;28;20168;-72
2021/12/18 07:53:11;;;;;;;24.70;6.45;;;;;;;1.03;80.59;101863.25;5050927;28;20033;-75
2021/12/18 07:55:57;;;;;;;17.00;6.68;;;;;;;1.15;80.44;101880.44;5052212;28;20030;-76
2021/12/18 07:58:43;;;;;;;16.25;6.03;;;;;;;1.23;79.80;101879.78;5058668;28;20044;-76
2021/12/18 08:01:28;;;;;;;16.65;6.78;;;;;;;1.11;80.21;101853.09;5048497;28;20395;-76
2021/12/18 08:04:14;;;;;;;14.55;5.57;;;;;;;1.23;79.54;101859.03;5056327;28;20052;-76
2021/12/18 08:07:01;;;;;;;11.90;5.72;;;;;;;1.28;79.51;101875.03;5060621;28;20033;-76
2021/12/18 08:09:47;;;;;;;13.63;6.15;;;;;;;1.31;79.72;101867.00;5042298;28;20045;-75
2021/12/18 08:12:33;;;;;;;11.60;5.32;;;;;;;1.44;78.93;101888.41;5049149;28;20447;-76
2021/12/18 08:15:18;;;;;;;17.25;6.72;;;;;;;1.57;79.08;101900.34;5061598;28;20044;-75
2021/12/18 08:18:07;;;;;;;12.43;6.03;;;;;;;1.58;78.83;101886.41;5055742;28;20033;-75
2021/12/18 08:20:53;;;;;;;11.32;5.55;;;;;;;1.55;78.27;101881.47;5056701;28;20082;-75
2021/12/18 08:23:38;;;;;;;16.42;6.80;;;;;;;1.70;78.57;101893.19;5057138;28;20090;-75
2021/12/18 08:26:24;;;;;;;11.02;5.60;;;;;;;1.70;78.38;101886.19;5042435;28;20071;-76
2021/12/18 08:29:10;;;;;;;12.38;5.95;;;;;;;1.87;78.13;101910.75;5051193;28;20033;-76
2021/12/18 08:31:56;;;;;;;12.48;6.10;;;;;;;1.80;77.80;101888.03;5046235;28;20037;-76
2021/12/18 08:34:41;;;;;;;11.63;6.18;;;;;;;1.94;77.57;101894.63;5053825;28;20032;-75
2021/12/18 08:37:27;;;;;;;12.50;5.88;;;;;;;2.04;77.27;101900.69;5060685;28;20044;-75
2021/12/18 08:40:13;;;;;;;15.63;6.45;;;;;;;2.10;77.11;101908.75;5059945;28;20562;-74
2021/12/18 08:42:59;;;;;;;11.15;5.13;;;;;;;2.06;76.90;101891.81;5041089;28;20120;-76
2021/12/18 08:45:45;;;;;;;10.90;5.90;;;;;;;2.14;76.71;101885.94;5051105;28;20038;-75
2021/12/18 08:48:30;;;;;;;12.13;5.10;;;;;;;2.23;77.11;101886.94;5049246;28;20041;-76
2021/12/18 08:51:16;;;;;;;13.55;6.55;;;;;;;2.43;75.64;101906.78;5041711;28;20033;-74
2021/12/18 08:54:03;;;;;;;11.77;4.95;;;;;;;2.49;76.00;101897.63;5044008;28;20041;-74
2021/12/18 08:56:49;;;;;;;22.60;8.13;;;;;;;2.49;75.04;101895.03;5045171;28;20036;-74
2021/12/18 08:59:37;;;;;;;12.43;6.18;;;;;;;2.48;74.94;101885.59;5050936;28;20522;-73
2021/12/18 09:02:22;;;;;;;12.13;5.70;;;;;;;2.61;74.54;101893.13;5046265;28;20041;-74
2021/12/18 09:05:09;;;;;;;9.48;4.18;;;;;;;2.58;73.41;101894.22;5046411;28;20036;-73
2021/12/18 09:07:56;;;;;;;9.73;4.32;;;;;;;2.60;74.17;101896.69;5043070;28;20037;-73
2021/12/18 09:10:41;;;;;;;13.65;5.88;;;;;;;2.65;74.45;101892.72;5045587;28;20104;-74
2021/12/18 09:13:27;;;;;;;15.63;7.57;;;;;;;2.61;73.73;101875.78;5048526;28;20032;-73
2021/12/18 09:16:13;;;;;;;9.43;4.82;;;;;;;2.67;73.62;101877.81;5047197;28;20395;-73
2021/12/18 09:18:59;;;;;;;10.68;4.95;;;;;;;2.84;73.41;101891.91;5038009;28;20033;-74
2021/12/18 09:21:45;;;;;;;12.25;6.13;;;;;;;2.85;73.81;101890.97;5034617;28;20388;-73
2021/12/18 09:24:30;;;;;;;11.90;5.00;;;;;;;2.98;73.85;101890.69;5052217;28;20037;-74
2021/12/18 09:27:17;;;;;;;12.18;5.00;;;;;;;3.03;72.89;101887.66;5046965;28;20033;-73
2021/12/18 09:30:04;;;;;;;10.40;4.60;;;;;;;2.80;73.10;101846.31;5039516;28;20065;-73
2021/12/18 09:32:50;;;;;;;11.32;5.50;;;;;;;3.09;72.63;101880.13;5044303;28;20124;-73
2021/12/18 09:35:36;;;;;;;11.93;5.45;;;;;;;3.16;72.74;101883.81;5033029;28;20092;-74
2021/12/18 09:38:22;;;;;;;11.00;5.50;;;;;;;3.18;72.49;101874.09;5036347;28;20119;-73
2021/12/18 09:41:08;;;;;;;10.20;4.00;;;;;;;3.18;71.34;101861.06;5038331;28;20091;-74
2021/12/18 09:43:53;;;;;;;8.50;4.28;;;;;;;3.24;72.19;101867.50;5037573;28;20037;-73
2021/12/18 09:46:39;;;;;;;12.77;5.30;;;;;;;3.29;72.10;101872.28;5042939;28;20542;-73
2021/12/18 09:49:27;;;;;;;10.35;4.95;;;;;;;3.41;72.63;101871.97;5039385;28;20048;-73
2021/12/18 09:52:13;;;;;;;10.73;4.20;;;;;;;3.44;72.60;101865.66;5046721;28;20456;-73
2021/12/18 09:54:58;;;;;;;10.32;4.07;;;;;;;3.26;72.13;101838.72;5044068;28;20059;-73
2021/12/18 09:57:46;;;;;;;10.00;4.25;;;;;;;3.27;72.46;101822.94;5044650;28;20040;-74
2021/12/18 10:00:32;;;;;;;11.25;4.30;;;;;;;3.50;71.85;101846.06;5036117;28;20120;-73
2021/12/18 10:03:18;;;;;;;7.93;4.20;;;;;;;3.58;71.24;101849.56;5043541;28;20046;-73
2021/12/18 10:06:37;;;;;;;7.28;3.70;;;;;;;3.61;71.55;101857.09;5045861;28;20451;-74
2021/12/18 10:09:25;;;;;;;9.95;3.72;;;;;;;3.66;71.62;101856.66;5042355;28;20045;-74
2021/12/18 10:12:40;;;;;;;9.70;3.70;;;;;;;3.63;70.61;101860.38;5048588;28;20072;-74
2021/12/18 10:15:26;;;;;;;8.18;4.10;;;;;;;3.61;71.01;101843.25;5041695;28;20543;-73
2021/12/18 10:18:11;;;;;;;9.40;4.43;;;;;;;3.66;71.25;101841.03;5037994;28;20123;-74
2021/12/18 10:21:09;;;;;;;8.68;4.43;;;;;;;3.77;71.50;101853.06;5039484;28;20037;-73
2021/12/18 10:23:57;;;;;;;7.25;3.67;;;;;;;3.77;71.06;101847.84;5045370;28;20041;-74
2021/12/18 10:26:44;;;;;;;8.35;4.97;;;;;;;3.76;71.55;101844.44;5056151;28;20053;-74
2021/12/18 10:29:36;;;;;;;7.18;4.15;;;;;;;3.80;70.00;101850.97;5041643;28;20041;-74
2021/12/18 10:32:23;;;;;;;9.65;4.57;;;;;;;3.61;70.48;101805.00;5036788;28;20104;-74
2021/12/18 10:35:09;;;;;;;9.30;3.80;;;;;;;3.75;70.49;101834.97;5043359;28;20042;-74
2021/12/18 10:37:55;;;;;;;11.13;4.85;;;;;;;3.73;69.67;101825.66;5042766;28;20120;-74
2021/12/18 10:40:46;;;;;;;11.70;5.30;;;;;;;3.80;69.68;101831.94;5041381;28;20116;-74
2021/12/18 10:44:11;;;;;;;10.27;4.57;;;;;;;3.79;69.62;101818.09;5044997;28;20064;-74
2021/12/18 10:46:57;;;;;;;7.47;4.00;;;;;;;3.76;69.12;101813.16;4963997;28;20547;-75
2021/12/18 10:49:42;;;;;;;8.82;3.90;;;;;;;3.69;69.07;101800.84;4951935;28;20037;-76
2021/12/18 10:52:37;;;;;;;9.48;3.70;;;;;;;3.80;69.21;101816.28;4968437;28;20035;-75
2021/12/18 10:55:32;;;;;;;11.38;5.35;;;;;;;3.82;69.55;101820.38;4961843;28;20061;-77
2021/12/18 10:58:18;;;;;;;7.15;4.13;;;;;;;3.88;68.94;101820.78;4961427;28;20046;-76
2021/12/18 11:01:10;;;;;;;9.05;3.80;;;;;;;3.82;68.08;101809.97;4944745;28;20036;-76
2021/12/18 11:03:56;;;;;;;5.15;3.33;;;;;;;3.74;68.76;101799.47;4962123;28;20062;-75
2021/12/18 11:06:41;;;;;;;9.23;3.83;;;;;;;3.88;69.00;101803.38;4958203;28;20059;-75
2021/12/18 11:09:32;;;;;;;9.07;3.83;;;;;;;3.94;68.45;101807.97;4955430;28;20039;-76
2021/12/18 11:15:22;;;;;;;8.80;4.35;;;;;;;3.92;68.50;101790.84;4955985;28;20035;-75
2021/12/18 11:18:09;;;;;;;15.65;5.88;;;;;;;4.07;68.97;101806.81;4957232;28;20043;-75
2021/12/18 11:20:54;;;;;;;12.32;5.75;;;;;;;4.03;68.63;101791.47;5013817;28;20597;-69
2021/12/18 11:23:49;;;;;;;12.85;5.80;;;;;;;4.03;67.71;101781.03;5038609;28;20159;-76
2021/12/18 11:26:45;;;;;;;10.55;5.15;;;;;;;4.05;66.99;101779.13;5040892;28;20049;-75
2021/12/18 11:29:55;;;;;;;14.18;5.95;;;;;;;4.20;68.01;101799.47;5043196;28;20049;-76
2021/12/18 11:32:44;;;;;;;12.98;5.53;;;;;;;4.24;67.49;101787.78;5043534;28;20041;-75
2021/12/18 11:35:30;;;;;;;10.07;4.93;;;;;;;4.21;67.22;101778.47;5038195;28;20395;-76
2021/12/18 11:38:18;;;;;;;6.50;3.75;;;;;;;4.19;66.87;101777.78;5042655;28;20075;-76
2021/12/18 11:41:04;;;;;;;6.75;3.63;;;;;;;4.24;67.58;101778.16;5042784;28;20028;-76
2021/12/18 11:43:50;;;;;;;6.82;3.15;;;;;;;4.38;67.82;101774.22;5042916;28;20033;-75
2021/12/18 11:46:37;;;;;;;10.60;4.47;;;;;;;4.39;66.94;101780.25;5038584;28;20065;-75
2021/12/18 11:49:26;;;;;;;9.27;4.25;;;;;;;4.42;66.38;101778.13;5039928;28;20038;-75
2021/12/18 11:52:11;;;;;;;11.87;4.10;;;;;;;4.35;66.29;101771.88;5038544;28;20033;-75
2021/12/18 11:55:00;;;;;;;7.43;3.63;;;;;;;4.35;67.30;101764.06;5039002;28;20483;-76
2021/12/18 11:57:52;;;;;;;6.20;3.95;;;;;;;4.46;67.38;101771.66;5038303;28;20037;-76
2021/12/18 12:00:43;;;;;;;7.07;3.60;;;;;;;4.49;66.84;101786.19;5052374;28;20414;-75
2021/12/18 12:03:28;;;;;;;7.57;3.83;;;;;;;4.54;66.44;101790.94;5047875;28;20048;-76
2021/12/18 12:06:33;;;;;;;9.00;3.88;;;;;;;4.57;66.20;101793.25;5037887;28;20033;-75
2021/12/18 12:09:33;;;;;;;6.43;3.10;;;;;;;4.43;66.30;101782.41;5039420;28;20041;-75
2021/12/18 12:12:19;;;;;;;5.60;3.00;;;;;;;4.34;66.24;101762.44;5039067;28;20061;-75
2021/12/18 12:15:15;;;;;;;5.10;3.20;;;;;;;4.45;65.52;101775.25;5035460;28;20033;-76
2021/12/18 12:18:04;;;;;;;6.72;3.75;;;;;;;4.28;65.73;101749.97;5036223;28;20033;-74
2021/12/18 12:20:51;;;;;;;6.83;3.27;;;;;;;4.58;66.55;101805.34;5035814;28;20041;-74
2021/12/18 12:24:00;;;;;;;6.47;3.63;;;;;;;4.63;66.03;101803.09;5037483;28;20037;-75
2021/12/18 12:26:47;;;;;;;;;;;;;;;4.63;66.44;101798.69;5038815;28;20041;-74
2021/12/18 12:29:49;;;;;;;13.25;5.50;;;;;;;4.26;66.34;101734.50;5036533;28;19924;-75
2021/12/18 12:32:36;;;;;;;8.88;4.78;;;;;;;4.67;65.91;101789.59;5034648;28;20408;-75
2021/12/18 12:35:22;;;;;;;16.20;5.45;;;;;;;4.75;64.97;101809.72;5031813;28;20403;-75
2021/12/18 12:38:22;;;;;;;8.07;4.20;;;;;;;4.71;65.26;101802.34;5034331;28;20108;-68
2021/12/18 12:41:23;;;;;;;7.15;4.20;;;;;;;4.73;65.29;101806.44;5030931;28;20037;-75
2021/12/18 12:44:36;;;;;;;15.48;7.05;;;;;;;4.77;65.63;101802.56;5035498;28;20033;-75
2021/12/18 12:47:27;;;;;;;13.77;7.10;;;;;;;4.84;65.74;101806.19;5044435;28;20033;-75
2021/12/18 12:50:13;;;;;;;6.88;4.20;;;;;;;4.85;65.76;101805.22;5038457;28;20033;-75
2021/12/18 12:52:59;;;;;;;6.85;3.50;;;;;;;4.84;65.23;101800.97;5043976;28;20037;-75
2021/12/18 12:55:48;;;;;;;9.90;5.25;;;;;;;4.75;64.86;101809.72;5039011;28;20033;-75
2021/12/18 12:58:34;;;;;;;7.93;3.50;;;;;;;4.74;65.70;101802.88;5037234;28;20403;-75
2021/12/18 13:01:21;;;;;;;13.25;4.20;;;;;;;4.67;65.77;101794.81;5036384;28;20037;-76
2021/12/18 13:04:14;;;;;;;8.88;4.10;;;;;;;4.78;65.13;101806.78;5032697;28;20064;-74
2021/12/18 13:07:07;;;;;;;14.30;6.00;;;;;;;4.72;66.24;101801.34;5035109;28;20041;-75
2021/12/18 13:09:53;;;;;;;9.90;5.30;;;;;;;4.66;65.09;101803.59;5035632;28;20078;-75
2021/12/18 13:13:05;;;;;;;8.77;5.20;;;;;;;4.69;65.46;101813.75;5032086;28;20073;-75
2021/12/18 13:16:02;;;;;;;11.27;5.43;;;;;;;4.68;65.92;101816.50;5040288;28;20026;-75
2021/12/18 13:18:53;;;;;;;14.07;5.07;;;;;;;4.53;65.77;101786.72;5041004;28;20124;-75
2021/12/18 13:21:40;;;;;;;8.85;5.25;;;;;;;4.54;65.49;101798.78;5041956;28;20132;-67
2021/12/18 13:24:25;;;;;;;13.45;6.63;;;;;;;4.44;65.71;101789.25;5048420;28;20463;-67
2021/12/18 13:27:11;;;;;;;12.30;5.90;;;;;;;4.54;66.07;101809.22;5045028;28;20033;-67
2021/12/18 13:30:09;;;;;;;11.02;5.85;;;;;;;4.58;66.46;101823.59;5043510;28;20499;-72
2021/12/18 13:33:01;;;;;;;12.68;5.20;;;;;;;4.51;65.72;101814.75;5037188;28;20045;-74
2021/12/18 13:35:55;;;;;;;9.32;5.22;;;;;;;4.45;65.65;101818.75;5048025;28;20115;-77
2021/12/18 13:38:45;;;;;;;13.40;6.95;;;;;;;4.44;66.34;101827.56;5037866;28;20044;-79
2021/12/18 13:41:30;;;;;;;14.75;7.20;;;;;;;4.40;66.31;101832.22;5048793;28;20083;-77
2021/12/18 13:44:16;;;;;;;20.17;9.00;;;;;;;4.36;66.73;101828.31;5038990;28;20513;-77
2021/12/18 13:47:29;;;;;;;17.20;8.40;;;;;;;4.41;67.41;101843.50;5040784;28;20068;-78
2021/12/18 13:50:18;;;;;;;18.42;8.70;;;;;;;4.45;67.14;101853.50;5048550;28;20041;-77
2021/12/18 13:53:08;;;;;;;17.45;8.35;;;;;;;4.42;67.90;101855.56;5042908;28;20041;-78